Time;durP1;ratioP1;P1;durP2;ratioP2;P2;SDS_P1;SDS_P2;PMS_P1;PMS_P2;Temp;Humidity;BMP_temperature;BMP_pressure;BME280_temperature;BME280_humidity;BME280_pressure;Samples;Min_cycle;Max_cycle;Signal;HPM_P1;HPM_P2
2022/03/02 00:00:13;;;;;;;12.15;6.78;;;1.40;63.80;;;;;;5046611;28;20032;-70
2022/03/02 00:02:39;;;;;;;16.60;8.40;;;1.30;64.20;;;;;;5051290;28;20029;-71
2022/03/02 00:05:07;;;;;;;14.13;7.53;;;1.30;64.60;;;;;;5018580;28;20031;-71
2022/03/02 00:07:33;;;;;;;14.85;7.68;;;1.30;64.70;;;;;;5038943;28;20021;-71
2022/03/02 00:09:58;;;;;;;14.07;7.07;;;1.30;64.80;;;;;;5024180;28;20510;-70
2022/03/02 00:12:24;;;;;;;17.90;8.13;;;1.40;65.20;;;;;;5028941;28;20107;-70
2022/03/02 00:14:50;;;;;;;16.07;7.13;;;1.40;65.20;;;;;;5020512;28;20116;-71
2022/03/02 00:17:15;;;;;;;15.43;7.37;;;1.40;65.30;;;;;;5031992;28;20386;-71
2022/03/02 00:19:41;;;;;;;15.27;7.90;;;1.40;65.40;;;;;;5028622;28;20036;-71
2022/03/02 00:22:07;;;;;;;15.37;8.27;;;1.40;65.40;;;;;;5039533;28;20039;-71
2022/03/02 00:24:33;;;;;;;15.80;7.60;;;1.40;65.50;;;;;;5029334;28;20078;-70
2022/03/02 00:26:59;;;;;;;14.73;7.60;;;1.40;65.60;;;;;;5043262;28;20393;-70
2022/03/02 00:29:25;;;;;;;15.10;7.80;;;1.40;65.80;;;;;;5038232;28;20024;-70
2022/03/02 00:31:52;;;;;;;14.75;6.97;;;1.40;65.90;;;;;;5041003;28;20051;-71
2022/03/02 00:34:18;;;;;;;15.20;7.43;;;1.40;66.10;;;;;;5038463;28;20037;-71
2022/03/02 00:36:44;;;;;;;15.97;7.17;;;1.40;66.30;;;;;;5036740;28;20035;-70
2022/03/02 00:39:10;;;;;;;16.27;7.93;;;1.40;67.20;;;;;;5032504;28;20493;-71
2022/03/02 00:41:36;;;;;;;13.70;7.20;;;1.30;68.30;;;;;;5035867;28;20170;-71
2022/03/02 00:44:02;;;;;;;13.40;6.63;;;1.30;68.10;;;;;;5042703;28;20021;-71
2022/03/02 00:46:29;;;;;;;17.27;7.82;;;1.30;68.00;;;;;;5031720;28;20037;-71
2022/03/02 00:49:01;;;;;;;15.43;8.80;;;1.30;67.90;;;;;;5040693;28;20090;-70
2022/03/02 00:51:27;;;;;;;15.60;7.68;;;1.40;67.90;;;;;;5030936;28;20024;-70
2022/03/02 00:53:54;;;;;;;15.02;7.45;;;1.30;67.60;;;;;;5043610;28;20043;-70
2022/03/02 00:56:21;;;;;;;16.98;7.95;;;1.30;68.20;;;;;;5043643;28;20174;-70
2022/03/02 00:58:48;;;;;;;13.63;7.70;;;1.20;68.70;;;;;;5041881;28;20099;-70
2022/03/02 01:01:15;;;;;;;15.23;8.00;;;1.20;68.90;;;;;;5039990;28;20039;-70
2022/03/02 01:03:40;;;;;;;16.50;8.13;;;1.20;69.60;;;;;;5041986;28;20107;-70
2022/03/02 01:06:06;;;;;;;17.73;8.70;;;1.10;70.00;;;;;;5036050;28;20041;-72
2022/03/02 01:08:33;;;;;;;19.17;7.97;;;1.10;70.40;;;;;;5037366;28;20021;-70
2022/03/02 01:10:59;;;;;;;18.35;8.18;;;1.10;71.10;;;;;;5040910;28;20025;-71
2022/03/02 01:13:25;;;;;;;17.02;7.80;;;1.00;71.30;;;;;;5044594;28;20090;-71
2022/03/02 01:15:51;;;;;;;14.97;8.10;;;1.00;71.40;;;;;;5042920;28;20028;-70
2022/03/02 01:18:16;;;;;;;13.87;7.10;;;1.00;71.60;;;;;;5033877;28;20641;-71
2022/03/02 01:20:43;;;;;;;14.57;7.37;;;1.00;71.30;;;;;;5021209;28;20016;-71
2022/03/02 01:23:09;;;;;;;12.93;7.32;;;0.90;71.60;;;;;;5042605;28;20059;-70
2022/03/02 01:25:35;;;;;;;16.60;8.27;;;0.90;71.60;;;;;;5044024;28;20024;-70
2022/03/02 01:28:00;;;;;;;17.10;8.03;;;0.90;71.70;;;;;;5049275;28;20059;-71
2022/03/02 01:30:26;;;;;;;19.83;8.00;;;1.00;71.70;;;;;;5034750;28;20135;-71
2022/03/02 01:32:53;;;;;;;15.13;8.07;;;0.90;71.70;;;;;;5052194;28;20340;-70
2022/03/02 01:35:19;;;;;;;17.73;8.00;;;0.90;71.80;;;;;;5038145;28;20287;-70
2022/03/02 01:37:45;;;;;;;19.73;9.23;;;0.90;71.90;;;;;;5019227;28;20451;-70
2022/03/02 01:40:10;;;;;;;16.87;8.47;;;0.90;71.80;;;;;;5037369;28;20107;-71
2022/03/02 01:42:37;;;;;;;17.40;8.40;;;1.00;71.60;;;;;;5029883;28;20036;-70
2022/03/02 01:45:04;;;;;;;20.27;8.40;;;1.00;71.70;;;;;;5037538;28;20070;-71
2022/03/02 01:47:30;;;;;;;14.93;7.90;;;1.00;71.50;;;;;;5034894;28;20029;-71
2022/03/02 01:49:56;;;;;;;16.27;8.10;;;1.00;71.60;;;;;;5041860;28;21417;-70
2022/03/02 01:52:22;;;;;;;16.75;8.38;;;1.00;71.40;;;;;;5023908;28;20021;-70
2022/03/02 01:54:47;;;;;;;16.87;8.03;;;1.00;71.40;;;;;;5039325;28;20033;-70
2022/03/02 01:57:14;;;;;;;15.23;7.17;;;1.00;71.40;;;;;;5036186;28;20021;-71
2022/03/02 01:59:40;;;;;;;17.00;7.85;;;1.00;71.50;;;;;;5044637;28;21497;-70
2022/03/02 02:02:07;;;;;;;16.30;8.15;;;0.90;71.60;;;;;;5041987;28;20048;-71
2022/03/02 02:04:33;;;;;;;16.38;8.55;;;0.90;71.90;;;;;;5038635;28;20375;-70
2022/03/02 02:07:00;;;;;;;14.07;7.90;;;0.90;72.00;;;;;;5037233;28;20035;-71
2022/03/02 02:09:26;;;;;;;13.77;7.88;;;0.90;72.10;;;;;;5033310;28;20037;-70
2022/03/02 02:11:52;;;;;;;17.33;7.93;;;0.90;72.20;;;;;;5028139;28;20028;-70
2022/03/02 02:14:18;;;;;;;18.13;8.18;;;0.80;72.20;;;;;;5038131;28;20024;-71
2022/03/02 02:16:44;;;;;;;15.57;7.60;;;0.90;72.40;;;;;;5035421;28;20311;-70
2022/03/02 02:19:10;;;;;;;17.47;8.00;;;0.90;72.30;;;;;;5043459;28;20119;-71
2022/03/02 02:21:36;;;;;;;17.10;7.88;;;0.80;72.40;;;;;;5040387;28;20135;-71
2022/03/02 02:24:02;;;;;;;17.87;7.57;;;0.80;72.50;;;;;;5040800;28;20033;-70
2022/03/02 02:26:28;;;;;;;16.35;8.00;;;0.80;72.40;;;;;;5037605;28;20021;-70
2022/03/02 02:28:55;;;;;;;16.73;7.67;;;0.80;72.50;;;;;;5039952;28;20037;-70
2022/03/02 02:31:21;;;;;;;16.75;7.97;;;0.80;72.50;;;;;;5035903;28;20035;-71
2022/03/02 02:33:47;;;;;;;14.47;7.73;;;0.80;72.60;;;;;;5041041;28;20025;-70
2022/03/02 02:36:14;;;;;;;;;;;0.80;72.60;;;;;;5038358;28;20025;-70
2022/03/02 02:38:40;;;;;;;15.05;7.45;;;0.80;72.60;;;;;;5051619;28;19905;-71
2022/03/02 02:41:06;;;;;;;15.10;7.25;;;0.80;72.60;;;;;;5046164;28;20055;-71
2022/03/02 02:43:32;;;;;;;13.97;7.33;;;0.80;72.60;;;;;;5042590;28;20021;-71
2022/03/02 02:45:58;;;;;;;15.40;7.30;;;0.80;72.60;;;;;;5047136;28;20323;-70
2022/03/02 02:48:23;;;;;;;15.17;6.93;;;0.80;72.60;;;;;;5025716;28;20021;-71
2022/03/02 02:50:51;;;;;;;16.40;7.37;;;0.80;72.50;;;;;;5028119;28;20044;-70
2022/03/02 02:53:16;;;;;;;13.75;7.05;;;0.80;72.60;;;;;;5043007;28;20618;-70
2022/03/02 02:55:44;;;;;;;17.20;6.90;;;0.80;72.40;;;;;;5021716;28;20028;-71
2022/03/02 02:58:10;;;;;;;10.75;6.38;;;0.80;72.40;;;;;;5042738;28;20032;-71
2022/03/02 03:00:40;;;;;;;12.68;7.00;;;0.80;72.40;;;;;;5040779;28;20086;-71
2022/03/02 03:03:06;;;;;;;15.15;7.18;;;0.80;72.30;;;;;;5026522;28;20059;-71
2022/03/02 03:05:33;;;;;;;15.15;7.75;;;0.80;72.40;;;;;;5042693;28;20024;-70
2022/03/02 03:08:05;;;;;;;15.02;7.90;;;0.80;72.40;;;;;;5045184;28;20453;-70
2022/03/02 03:10:31;;;;;;;13.98;7.13;;;0.80;72.30;;;;;;5042760;28;20016;-70
2022/03/02 03:12:57;;;;;;;15.52;7.25;;;0.70;72.50;;;;;;5044481;28;20147;-71
2022/03/02 03:15:23;;;;;;;12.40;7.40;;;0.70;72.80;;;;;;5042953;28;20423;-70
2022/03/02 03:17:50;;;;;;;14.00;7.50;;;0.70;72.70;;;;;;5046354;28;20083;-70
2022/03/02 03:20:18;;;;;;;16.17;7.53;;;0.70;72.80;;;;;;5040909;28;20114;-71
2022/03/02 03:22:45;;;;;;;15.32;8.00;;;0.70;73.20;;;;;;5039032;28;20028;-71
2022/03/02 03:25:12;;;;;;;15.15;7.10;;;0.70;73.30;;;;;;5032659;28;20048;-71
2022/03/02 03:27:41;;;;;;;14.18;7.18;;;0.60;73.30;;;;;;5038846;28;20103;-71
2022/03/02 03:30:08;;;;;;;16.25;7.18;;;0.70;73.40;;;;;;5034073;28;20025;-71
2022/03/02 03:32:34;;;;;;;12.15;6.63;;;0.60;73.40;;;;;;5046596;28;20033;-70
2022/03/02 03:35:00;;;;;;;15.80;7.53;;;0.60;73.50;;;;;;5044138;28;20070;-71
2022/03/02 03:37:27;;;;;;;13.38;7.20;;;0.60;73.40;;;;;;5033909;28;20773;-71
2022/03/02 03:39:53;;;;;;;14.32;7.50;;;0.60;73.60;;;;;;5039050;28;20098;-71
2022/03/02 03:42:19;;;;;;;14.43;6.87;;;0.60;73.70;;;;;;5035268;28;20482;-70
2022/03/02 03:44:44;;;;;;;13.70;6.60;;;0.60;73.70;;;;;;5037893;28;20025;-71
2022/03/02 03:47:10;;;;;;;17.50;7.67;;;0.60;73.80;;;;;;5036187;28;20028;-71
2022/03/02 03:49:36;;;;;;;14.97;7.13;;;0.60;73.90;;;;;;5042387;28;20043;-71
2022/03/02 03:52:03;;;;;;;17.27;7.72;;;0.60;73.90;;;;;;5039722;28;20022;-71
2022/03/02 03:54:28;;;;;;;14.60;7.00;;;0.60;73.90;;;;;;5050380;28;20028;-70
2022/03/02 03:56:54;;;;;;;19.87;6.70;;;0.60;74.10;;;;;;5047195;28;20029;-70
2022/03/02 03:59:20;;;;;;;14.07;7.57;;;0.50;74.00;;;;;;5040517;28;20135;-71
2022/03/02 04:01:46;;;;;;;16.55;7.63;;;0.50;74.10;;;;;;5042528;28;20016;-71
2022/03/02 04:04:12;;;;;;;15.63;7.50;;;0.50;74.40;;;;;;5041364;28;20029;-71
2022/03/02 04:06:37;;;;;;;14.20;7.57;;;0.50;74.30;;;;;;5041765;28;20032;-70
2022/03/02 04:09:03;;;;;;;15.30;7.10;;;0.50;74.20;;;;;;5024481;28;20021;-71
2022/03/02 04:11:30;;;;;;;14.97;7.33;;;0.60;74.40;;;;;;5036025;28;20017;-71
2022/03/02 04:13:56;;;;;;;15.05;7.25;;;0.40;74.30;;;;;;5041259;28;20029;-71
2022/03/02 04:16:22;;;;;;;12.38;6.53;;;0.40;74.40;;;;;;5027932;28;20017;-71
2022/03/02 04:18:48;;;;;;;17.27;7.47;;;0.40;74.80;;;;;;5045889;28;20509;-71
2022/03/02 04:21:14;;;;;;;14.83;7.07;;;0.40;74.60;;;;;;5041278;28;20366;-71
2022/03/02 04:23:40;;;;;;;16.33;6.90;;;0.40;74.90;;;;;;5026891;28;20076;-70
2022/03/02 04:26:07;;;;;;;15.23;7.60;;;0.40;74.80;;;;;;5054766;28;20056;-70
2022/03/02 04:28:33;;;;;;;17.58;7.85;;;0.40;74.90;;;;;;5022263;28;20506;-71
2022/03/02 04:30:58;;;;;;;13.80;7.67;;;0.30;74.70;;;;;;5038059;28;20055;-71
2022/03/02 04:33:24;;;;;;;16.70;6.97;;;0.30;74.70;;;;;;5031630;28;20043;-71
2022/03/02 04:35:50;;;;;;;15.27;7.50;;;0.30;75.00;;;;;;5041375;28;20035;-71
2022/03/02 04:38:16;;;;;;;13.03;7.33;;;0.20;75.00;;;;;;5035063;28;20098;-70
2022/03/02 04:40:41;;;;;;;15.97;6.80;;;0.20;75.10;;;;;;5038731;28;20029;-71
2022/03/02 04:43:07;;;;;;;17.13;7.63;;;0.20;75.10;;;;;;5042359;28;20029;-70
2022/03/02 04:45:33;;;;;;;13.13;7.10;;;0.20;75.20;;;;;;5038500;28;20465;-70
2022/03/02 04:47:59;;;;;;;14.33;7.33;;;0.20;75.20;;;;;;5038510;28;20386;-71
2022/03/02 04:50:25;;;;;;;16.40;8.20;;;0.20;75.00;;;;;;5037739;28;20029;-70
2022/03/02 04:52:52;;;;;;;15.27;7.35;;;0.10;75.10;;;;;;5039677;28;20863;-70
2022/03/02 04:55:18;;;;;;;;;;;0.10;75.00;;;;;;5033611;28;20029;-71
2022/03/02 04:57:46;;;;;;;14.45;6.95;;;0.10;75.10;;;;;;5045257;28;19959;-70
2022/03/02 05:00:19;;;;;;;14.18;7.00;;;0.20;75.30;;;;;;5030659;28;20025;-71
2022/03/02 05:02:45;;;;;;;14.48;6.82;;;0.20;75.00;;;;;;5039757;28;20025;-70
2022/03/02 05:05:13;;;;;;;14.97;6.83;;;0.20;75.20;;;;;;5033534;28;20037;-71
2022/03/02 05:07:40;;;;;;;13.25;7.18;;;0.20;75.10;;;;;;5042414;28;20255;-70
2022/03/02 05:10:07;;;;;;;14.02;7.28;;;0.20;74.90;;;;;;5042226;28;20373;-71
2022/03/02 05:12:33;;;;;;;14.63;6.85;;;0.20;74.80;;;;;;5037059;28;20032;-71
2022/03/02 05:15:00;;;;;;;15.05;6.65;;;0.20;74.90;;;;;;5042057;28;20024;-71
2022/03/02 05:17:25;;;;;;;11.02;6.30;;;0.20;75.00;;;;;;5032724;28;20607;-71
2022/03/02 05:19:52;;;;;;;17.90;7.63;;;0.10;74.90;;;;;;5042798;28;20028;-71
2022/03/02 05:22:17;;;;;;;12.97;6.97;;;0.10;75.10;;;;;;5037886;28;20032;-71
2022/03/02 05:24:43;;;;;;;16.37;7.70;;;0.10;75.10;;;;;;5040084;28;20258;-71
2022/03/02 05:27:09;;;;;;;14.70;7.40;;;0.10;75.00;;;;;;5036981;28;20047;-71
2022/03/02 05:29:36;;;;;;;13.57;7.07;;;0.10;75.10;;;;;;5040549;28;20012;-71
2022/03/02 05:32:03;;;;;;;15.55;7.40;;;0.10;75.20;;;;;;5041036;28;20036;-70
2022/03/02 05:34:29;;;;;;;15.48;7.30;;;0.10;75.20;;;;;;5033967;28;20070;-71
2022/03/02 05:36:55;;;;;;;18.07;7.30;;;0.10;75.20;;;;;;5043329;28;20025;-71
2022/03/02 05:39:20;;;;;;;15.07;7.43;;;0.10;75.10;;;;;;5034881;28;20020;-71
2022/03/02 05:41:46;;;;;;;15.60;7.03;;;0.10;75.20;;;;;;5038880;28;20561;-70
2022/03/02 05:44:12;;;;;;;13.67;7.13;;;0.20;75.20;;;;;;5021671;28;20032;-70
2022/03/02 05:46:38;;;;;;;14.47;7.37;;;0.20;75.20;;;;;;5025235;28;20053;-71
2022/03/02 05:49:05;;;;;;;14.57;6.93;;;0.20;75.10;;;;;;5043632;28;20025;-70
2022/03/02 05:51:31;;;;;;;15.88;6.95;;;0.30;75.20;;;;;;5030468;28;20025;-70
2022/03/02 05:53:58;;;;;;;13.93;6.78;;;0.40;75.30;;;;;;5046666;28;20032;-70
2022/03/02 05:56:25;;;;;;;16.58;7.45;;;0.70;74.80;;;;;;5035716;28;20623;-71
2022/03/02 05:58:53;;;;;;;14.90;6.45;;;1.20;73.50;;;;;;5040492;28;20151;-71
2022/03/02 06:01:20;;;;;;;14.68;6.65;;;1.60;71.60;;;;;;5020483;28;20028;-71
2022/03/02 06:03:46;;;;;;;;;;;2.00;70.50;;;;;;5044708;28;20458;-71
2022/03/02 06:06:12;;;;;;;12.00;6.82;;;2.60;68.60;;;;;;5040999;28;19905;-71
2022/03/02 06:08:37;;;;;;;13.80;7.67;;;3.30;66.50;;;;;;5045347;28;20024;-71
2022/03/02 06:11:03;;;;;;;13.90;6.87;;;3.90;64.30;;;;;;5046346;28;20304;-71
2022/03/02 06:13:30;;;;;;;14.65;6.95;;;4.60;61.40;;;;;;5039959;28;20035;-71
2022/03/02 06:15:59;;;;;;;14.23;6.85;;;5.20;59.00;;;;;;5036929;28;20055;-71
2022/03/02 06:18:25;;;;;;;14.73;7.60;;;5.80;56.60;;;;;;5019157;28;20058;-71
2022/03/02 06:20:52;;;;;;;13.40;7.10;;;6.50;54.70;;;;;;5046868;28;20029;-71
2022/03/02 06:23:19;;;;;;;10.70;6.40;;;7.10;52.20;;;;;;5051769;28;20028;-72
2022/03/02 06:25:45;;;;;;;14.52;6.75;;;7.60;50.80;;;;;;5041971;28;20017;-72
2022/03/02 06:28:12;;;;;;;12.15;6.65;;;8.30;49.30;;;;;;5048719;28;20394;-72
2022/03/02 06:30:37;;;;;;;15.85;7.68;;;9.00;47.20;;;;;;5040156;28;20029;-71
2022/03/02 06:33:03;;;;;;;14.73;7.77;;;9.60;45.20;;;;;;5045709;28;20028;-72
2022/03/02 06:35:29;;;;;;;12.67;7.07;;;10.20;43.90;;;;;;5018905;28;20017;-72
2022/03/02 06:37:55;;;;;;;11.52;7.75;;;10.80;42.20;;;;;;5043742;28;20028;-72
2022/03/02 06:40:21;;;;;;;13.98;7.30;;;11.30;41.10;;;;;;5035462;28;20500;-72
2022/03/02 06:43:08;;;;;;;14.50;7.90;;;11.80;40.10;;;;;;5050572;28;20036;-72
2022/03/02 06:45:49;;;;;;;13.07;7.15;;;12.40;38.90;;;;;;5035000;28;21074;-72
2022/03/02 06:48:51;;;;;;;15.48;7.35;;;12.80;37.60;;;;;;5040776;28;20107;-72
2022/03/02 06:51:20;;;;;;;12.00;7.90;;;13.30;36.80;;;;;;5045128;28;20059;-72
2022/03/02 06:53:46;;;;;;;13.10;7.32;;;13.90;36.00;;;;;;5042483;28;20051;-72
2022/03/02 06:56:12;;;;;;;11.65;7.00;;;14.50;35.10;;;;;;5039027;28;20485;-72
2022/03/02 06:58:45;;;;;;;;;;;14.80;34.50;;;;;;5044699;28;20032;-72
2022/03/02 07:01:13;;;;;;;11.52;7.45;;;15.10;34.00;;;;;;5040932;28;20380;-72
2022/03/02 07:03:49;;;;;;;18.63;8.60;;;15.60;33.00;;;;;;5039596;28;20441;-73
2022/03/02 07:06:16;;;;;;;13.55;8.32;;;15.90;33.00;;;;;;5025419;28;20024;-72
2022/03/02 07:08:48;;;;;;;13.82;7.97;;;16.50;32.60;;;;;;5045041;28;20044;-72
2022/03/02 07:11:16;;;;;;;21.20;8.85;;;17.00;32.00;;;;;;5037935;28;20024;-73
2022/03/02 07:13:45;;;;;;;24.83;9.93;;;17.50;31.20;;;;;;5045483;28;20733;-73
2022/03/02 07:16:19;;;;;;;17.25;8.65;;;17.60;30.70;;;;;;5024186;28;20035;-73
2022/03/02 07:18:45;;;;;;;16.90;9.07;;;17.80;30.90;;;;;;5041215;28;20021;-73
2022/03/02 07:21:13;;;;;;;33.88;10.38;;;18.10;30.00;;;;;;5039773;28;20745;-73
2022/03/02 07:23:47;;;;;;;35.78;9.88;;;18.40;29.70;;;;;;5046079;28;20521;-72
2022/03/02 07:26:17;;;;;;;14.07;8.00;;;18.40;29.70;;;;;;5047626;28;20514;-72
2022/03/02 07:28:47;;;;;;;24.10;9.27;;;18.60;29.40;;;;;;5026218;28;20053;-73
2022/03/02 07:31:13;;;;;;;33.45;9.77;;;18.70;29.30;;;;;;5026859;28;20024;-73
2022/03/02 07:33:42;;;;;;;12.98;7.78;;;18.60;29.10;;;;;;5042465;28;20059;-73
2022/03/02 07:36:11;;;;;;;14.75;8.55;;;19.00;29.20;;;;;;5039690;28;20025;-73
2022/03/02 07:38:38;;;;;;;15.30;8.02;;;19.40;28.90;;;;;;5040799;28;20478;-72
2022/03/02 07:41:07;;;;;;;20.33;8.80;;;19.70;28.30;;;;;;5041930;28;20021;-73
2022/03/02 07:43:38;;;;;;;11.80;8.05;;;20.20;28.00;;;;;;5044192;28;20025;-73
2022/03/02 07:46:09;;;;;;;17.88;8.82;;;20.10;27.80;;;;;;5038055;28;20103;-73
2022/03/02 07:48:36;;;;;;;17.10;8.50;;;19.60;28.00;;;;;;5039476;28;20414;-72
2022/03/02 07:51:04;;;;;;;10.63;7.97;;;19.70;28.10;;;;;;5039173;28;20627;-72
2022/03/02 07:53:40;;;;;;;11.27;8.35;;;20.00;28.10;;;;;;5038470;28;20021;-72
2022/03/02 07:56:08;;;;;;;11.07;7.35;;;20.40;27.40;;;;;;5032871;28;20032;-72
2022/03/02 07:58:39;;;;;;;11.82;7.78;;;20.70;27.30;;;;;;5042934;28;20017;-72
2022/03/02 08:01:06;;;;;;;12.55;8.20;;;20.90;27.10;;;;;;5035279;28;20021;-72
2022/03/02 08:03:38;;;;;;;11.10;8.27;;;21.20;27.00;;;;;;5022018;28;20021;-72
2022/03/02 08:06:05;;;;;;;10.18;7.72;;;21.70;26.60;;;;;;5035756;28;20033;-72
2022/03/02 08:08:31;;;;;;;12.20;8.10;;;21.70;26.20;;;;;;5045291;28;20021;-72
2022/03/02 08:10:57;;;;;;;10.68;7.32;;;21.60;26.10;;;;;;5039147;28;20032;-72
2022/03/02 08:13:27;;;;;;;9.43;7.45;;;21.80;26.10;;;;;;5040112;28;20044;-72
2022/03/02 08:15:53;;;;;;;11.40;7.47;;;22.00;26.00;;;;;;5038285;28;20024;-72
2022/03/02 08:18:19;;;;;;;10.07;7.45;;;22.00;25.90;;;;;;5042065;28;20033;-72
2022/03/02 08:20:50;;;;;;;9.52;7.13;;;22.00;25.80;;;;;;5044858;28;20024;-72
2022/03/02 08:23:20;;;;;;;12.15;7.35;;;22.00;25.90;;;;;;5046062;28;20040;-72
2022/03/02 08:25:53;;;;;;;9.88;7.35;;;21.90;26.00;;;;;;5048056;28;20070;-72
2022/03/02 08:28:21;;;;;;;13.15;7.88;;;22.10;25.50;;;;;;5029944;28;20029;-72
2022/03/02 08:30:52;;;;;;;11.15;7.72;;;21.70;25.60;;;;;;5047622;28;20745;-72
2022/03/02 08:33:25;;;;;;;12.55;7.82;;;21.50;25.80;;;;;;5044143;28;20029;-72
2022/03/02 08:35:51;;;;;;;11.98;7.80;;;21.70;25.70;;;;;;5037723;28;21334;-72
2022/03/02 08:38:17;;;;;;;10.35;7.03;;;21.20;25.90;;;;;;5044407;28;20031;-72
2022/03/02 08:40:43;;;;;;;11.00;7.05;;;21.00;25.90;;;;;;5042643;28;20032;-72
2022/03/02 08:43:12;;;;;;;9.60;7.13;;;21.30;25.70;;;;;;5040729;28;20620;-72
2022/03/02 08:45:39;;;;;;;11.48;7.05;;;21.50;25.80;;;;;;5035837;28;20482;-72
2022/03/02 08:48:09;;;;;;;10.82;7.57;;;21.70;25.40;;;;;;5033339;28;20025;-72
2022/03/02 08:59:02;;;;;;;12.10;7.85;;;21.40;25.60;;;;;;5038015;28;20091;-72
2022/03/02 09:04:52;;;;;;;11.23;6.80;;;21.00;25.70;;;;;;5037544;28;20090;-72
2022/03/02 09:07:53;;;;;;;8.65;6.80;;;21.40;25.70;;;;;;5023142;28;20523;-72
2022/03/02 09:10:19;;;;;;;9.50;7.15;;;21.20;25.40;;;;;;5003624;28;20017;-71
2022/03/02 09:12:45;;;;;;;;;;;21.20;25.50;;;;;;5000197;28;21063;-72
2022/03/02 09:15:10;;;;;;;10.55;7.32;;;21.00;25.70;;;;;;5004770;28;20008;-72
2022/03/02 09:17:36;;;;;;;9.23;7.25;;;21.20;25.70;;;;;;4996951;28;20033;-71
2022/03/02 09:20:03;;;;;;;11.63;7.03;;;21.20;25.70;;;;;;5000714;28;20022;-71
2022/03/02 09:22:29;;;;;;;10.07;6.90;;;20.50;26.00;;;;;;4998461;28;20018;-72
2022/03/02 09:24:56;;;;;;;;;;;20.10;26.00;;;;;;4993346;28;20119;-72
2022/03/02 09:27:27;;;;;;;9.20;7.00;;;19.90;26.00;;;;;;5003364;28;19913;-72
2022/03/02 09:29:58;;;;;;;10.98;7.25;;;19.90;26.40;;;;;;4996546;28;20040;-72
2022/03/02 09:32:24;;;;;;;10.88;7.55;;;20.20;26.20;;;;;;4998355;28;20029;-72
2022/03/02 09:34:54;;;;;;;11.20;7.72;;;20.10;26.10;;;;;;4999440;28;20058;-72
2022/03/02 09:37:23;;;;;;;9.38;7.18;;;20.20;25.80;;;;;;5000198;28;20535;-72
2022/03/02 09:39:50;;;;;;;10.13;7.70;;;20.20;26.20;;;;;;5004487;28;20021;-72
2022/03/02 09:42:39;;;;;;;10.57;7.78;;;20.50;26.00;;;;;;4990631;28;20033;-72
2022/03/02 09:45:07;;;;;;;11.52;7.50;;;20.30;26.00;;;;;;5004107;28;20387;-72
2022/03/02 09:47:43;;;;;;;9.85;7.60;;;20.20;26.00;;;;;;5000679;28;20018;-71
2022/03/02 09:50:12;;;;;;;10.38;7.32;;;19.70;26.40;;;;;;4995093;28;20029;-72
2022/03/02 09:52:41;;;;;;;10.90;7.45;;;20.10;26.50;;;;;;4988703;28;20514;-71
2022/03/02 09:55:12;;;;;;;11.13;8.02;;;20.40;26.00;;;;;;5005827;28;20113;-72
2022/03/02 09:57:44;;;;;;;10.35;7.95;;;20.60;26.00;;;;;;5008674;28;20059;-71
2022/03/02 10:00:12;;;;;;;10.25;7.32;;;20.90;25.90;;;;;;4996662;28;20105;-72
2022/03/02 10:02:40;;;;;;;11.80;7.93;;;20.90;25.50;;;;;;5014012;28;20045;-71
2022/03/02 10:05:18;;;;;;;10.90;7.95;;;20.70;25.50;;;;;;5000348;28;20030;-71
2022/03/02 10:08:07;;;;;;;10.02;7.40;;;20.10;25.80;;;;;;4998197;28;20129;-71
2022/03/02 10:10:36;;;;;;;11.35;7.45;;;20.10;26.20;;;;;;5003551;28;20172;-71
2022/03/02 10:13:08;;;;;;;11.20;6.90;;;19.90;26.10;;;;;;5004317;28;20052;-71
2022/03/02 10:15:34;;;;;;;11.93;8.13;;;19.40;26.40;;;;;;4997214;28;20022;-71
2022/03/02 10:18:01;;;;;;;9.75;6.72;;;19.20;26.40;;;;;;4996144;28;20037;-71
2022/03/02 10:20:34;;;;;;;10.32;7.40;;;19.50;26.60;;;;;;5003982;28;20025;-71
2022/03/02 10:23:22;;;;;;;11.07;7.70;;;19.50;26.60;;;;;;5004697;28;20056;-72
2022/03/02 10:26:13;;;;;;;9.55;6.95;;;19.70;27.40;;;;;;4989602;28;20037;-71
2022/03/02 10:29:05;;;;;;;13.68;8.45;;;20.10;27.60;;;;;;5003857;28;20018;-71
2022/03/02 10:31:44;;;;;;;14.27;7.65;;;20.10;26.80;;;;;;5007147;28;20076;-70
2022/03/02 10:34:38;;;;;;;11.38;8.07;;;19.90;26.80;;;;;;4978786;28;20596;-71
2022/03/02 10:37:04;;;;;;;16.08;8.68;;;19.90;27.00;;;;;;5003957;28;20364;-70
2022/03/02 10:39:57;;;;;;;11.95;8.55;;;20.20;26.90;;;;;;5000461;28;20021;-71
2022/03/02 10:42:30;;;;;;;10.07;7.82;;;20.80;26.50;;;;;;4984843;28;20116;-71
2022/03/02 10:45:08;;;;;;;12.95;8.48;;;20.90;26.80;;;;;;5000814;28;20608;-70
2022/03/02 10:47:56;;;;;;;13.88;8.35;;;21.30;26.40;;;;;;4996219;28;20080;-70
2022/03/02 10:50:24;;;;;;;12.73;8.75;;;21.50;26.20;;;;;;4948450;28;20029;-71
2022/03/02 10:52:53;;;;;;;15.13;8.85;;;20.90;26.40;;;;;;5007084;28;20018;-70
2022/03/02 10:55:21;;;;;;;11.88;8.55;;;20.10;27.10;;;;;;4998241;28;20041;-70
2022/03/02 10:57:49;;;;;;;11.25;8.45;;;19.70;27.20;;;;;;5007491;28;20842;-71
2022/03/02 11:00:18;;;;;;;10.50;8.23;;;19.90;27.10;;;;;;4995193;28;20747;-70
2022/03/02 11:02:48;;;;;;;10.93;8.48;;;19.90;27.00;;;;;;5005326;28;20041;-70
2022/03/02 11:05:17;;;;;;;16.63;10.07;;;19.90;27.30;;;;;;4978597;28;20026;-71
2022/03/02 11:07:44;;;;;;;11.82;8.80;;;19.70;27.30;;;;;;4997091;28;20095;-70
2022/03/02 11:10:11;;;;;;;;;;;18.90;27.50;;;;;;5007019;28;20025;-72
2022/03/02 11:12:42;;;;;;;11.60;9.52;;;17.60;28.30;;;;;;5006465;28;19909;-69
2022/03/02 11:15:09;;;;;;;12.10;8.32;;;16.90;29.10;;;;;;5005315;28;20064;-70
2022/03/02 11:17:36;;;;;;;12.73;7.82;;;16.30;29.60;;;;;;4996085;28;20527;-69
2022/03/02 11:20:09;;;;;;;15.10;9.05;;;15.70;29.90;;;;;;4989767;28;20928;-69
2022/03/02 11:22:36;;;;;;;13.13;8.02;;;15.50;30.30;;;;;;5004651;28;20053;-69
2022/03/02 11:25:04;;;;;;;12.35;7.90;;;15.20;30.30;;;;;;5007605;28;20029;-69
2022/03/02 11:27:38;;;;;;;12.60;8.23;;;14.80;31.20;;;;;;5003311;28;20033;-69
2022/03/02 11:30:16;;;;;;;12.48;8.02;;;14.40;31.20;;;;;;4990710;28;20024;-69
2022/03/02 11:32:45;;;;;;;11.85;8.00;;;13.80;31.20;;;;;;5007794;28;20460;-69
2022/03/02 11:35:14;;;;;;;14.20;7.07;;;13.50;31.90;;;;;;4997440;28;20038;-69
2022/03/02 11:37:41;;;;;;;12.98;8.10;;;13.20;31.40;;;;;;4982888;28;20025;-69
2022/03/02 11:40:12;;;;;;;10.52;6.95;;;12.90;31.50;;;;;;4983038;28;20022;-69
2022/03/02 11:42:40;;;;;;;12.27;6.70;;;12.70;31.40;;;;;;5003625;28;20033;-69
2022/03/02 11:45:08;;;;;;;12.18;6.97;;;12.60;31.50;;;;;;5005868;28;20018;-69
2022/03/02 11:47:36;;;;;;;10.13;6.47;;;12.30;32.00;;;;;;4990563;28;20397;-69
2022/03/02 11:50:04;;;;;;;11.43;6.57;;;12.10;31.70;;;;;;4998353;28;20026;-69
2022/03/02 11:52:33;;;;;;;10.30;6.05;;;12.10;31.70;;;;;;4996999;28;20459;-69
2022/03/02 11:55:09;;;;;;;11.38;5.78;;;12.00;30.70;;;;;;5001714;28;20033;-69
2022/03/02 11:57:43;;;;;;;9.68;5.65;;;11.80;30.60;;;;;;5007412;28;20454;-69
2022/03/02 12:00:11;;;;;;;10.50;5.65;;;11.70;30.70;;;;;;4981440;28;20372;-69
2022/03/02 12:02:49;;;;;;;12.23;6.43;;;11.70;31.00;;;;;;5006726;28;20017;-68
2022/03/02 12:05:19;;;;;;;10.10;6.38;;;11.60;31.30;;;;;;4980287;28;20417;-71
2022/03/02 12:08:06;;;;;;;11.35;6.50;;;11.70;34.30;;;;;;4998694;28;20017;-71
2022/03/02 12:10:35;;;;;;;11.85;6.43;;;12.00;36.30;;;;;;4998552;28;20498;-69
2022/03/02 12:13:02;;;;;;;10.45;6.20;;;12.00;31.60;;;;;;5001161;28;20040;-69
2022/03/02 12:15:44;;;;;;;;;;;12.00;31.00;;;;;;4981573;28;20073;-69
2022/03/02 12:18:12;;;;;;;10.43;5.70;;;11.80;31.20;;;;;;4990032;28;20339;-69
2022/03/02 12:20:50;;;;;;;10.07;6.28;;;11.20;31.70;;;;;;5000621;28;20084;-69
2022/03/02 12:23:32;;;;;;;8.73;5.85;;;11.40;32.30;;;;;;5003064;28;20510;-69
2022/03/02 12:26:00;;;;;;;9.02;6.10;;;11.50;32.30;;;;;;5001098;28;20018;-69
2022/03/02 12:28:26;;;;;;;14.70;6.57;;;11.50;31.70;;;;;;5007108;28;20025;-68
2022/03/02 12:30:52;;;;;;;9.87;5.73;;;11.50;31.80;;;;;;4991100;28;20023;-69
2022/03/02 12:33:23;;;;;;;11.18;6.43;;;11.40;32.60;;;;;;5003383;28;20107;-69
2022/03/02 12:35:50;;;;;;;12.57;6.90;;;11.40;32.50;;;;;;5000928;28;20033;-69
2022/03/02 12:38:16;;;;;;;10.63;6.32;;;11.40;32.00;;;;;;5000277;28;20034;-69
2022/03/02 12:40:42;;;;;;;10.77;6.43;;;11.50;32.00;;;;;;5001612;28;20025;-69
2022/03/02 12:43:18;;;;;;;10.60;6.10;;;11.50;31.80;;;;;;5004712;28;20044;-68
2022/03/02 12:45:48;;;;;;;11.38;6.65;;;11.40;31.50;;;;;;5002224;28;20034;-68
2022/03/02 12:48:16;;;;;;;12.23;7.30;;;11.40;31.90;;;;;;4988392;28;20033;-69
2022/03/02 12:50:45;;;;;;;10.25;6.07;;;11.30;32.50;;;;;;4998752;28;20077;-69
2022/03/02 12:53:12;;;;;;;11.60;7.72;;;11.20;34.00;;;;;;5003023;28;20033;-69
2022/03/02 12:55:39;;;;;;;13.45;6.90;;;11.30;32.60;;;;;;4996760;28;20034;-68
2022/03/02 12:58:06;;;;;;;;;;;11.30;32.10;;;;;;5007659;28;20028;-68
2022/03/02 13:00:32;;;;;;;7.88;5.75;;;11.20;31.60;;;;;;5001369;28;19951;-68
2022/03/02 13:02:58;;;;;;;9.03;5.97;;;11.20;32.30;;;;;;5008098;28;20466;-68